Time,TemperatureF,DewpointF,PressureIn,WindDirection,WindDirectionDegrees,WindSpeedMPH,WindSpeedGustMPH,Humidity,HourlyPrecipIn,Conditions,Clouds,dailyrainin,SoftwareType,DateUTC
2013-07-18 03:52:00,54.0,45.0,30.13,North,0,0.0,-999.0,71,-99.99,,,-99.99,,2013-07-18 10:52:00,
2013-07-18 04:22:00,52.0,45.0,30.12,SSE,150,5.0,-999.0,76,-99.99,,,-99.99,,2013-07-18 11:22:00,
2013-07-18 05:22:00,52.0,45.0,30.13,South,190,7.0,-999.0,76,-99.99,,,-99.99,,2013-07-18 12:22:00,
2013-07-18 06:22:00,50.0,45.0,30.14,North,0,0.0,-999.0,81,-99.99,,,-99.99,,2013-07-18 13:22:00,
2013-07-18 07:22:00,55.0,46.0,30.15,South,190,3.0,-999.0,71,-99.99,,,-99.99,,2013-07-18 14:22:00,
2013-07-18 07:32:00,55.0,46.0,30.15,South,190,3.0,-999.0,71,-99.99,,,-99.99,,2013-07-18 14:32:00,
2013-07-18 09:22:00,66.0,52.0,30.14,South,170,3.0,-999.0,59,-99.99,,,-99.99,,2013-07-18 16:22:00,
2013-07-18 09:32:00,66.0,52.0,30.14,South,170,3.0,-999.0,59,-99.99,,,-99.99,,2013-07-18 16:32:00,
2013-07-18 09:52:00,68.0,52.0,30.14,North,0,0.0,-999.0,56,-99.99,,,-99.99,,2013-07-18 16:52:00,
2013-07-18 10:22:00,72.0,54.0,30.13,SW,220,3.0,-999.0,53,-99.99,,,-99.99,,2013-07-18 17:22:00,
2013-07-18 10:33:00,72.0,54.0,30.13,SW,220,3.0,-999.0,53,-99.99,,,-99.99,,2013-07-18 17:33:00,
2013-07-18 10:52:00,72.0,52.0,30.12,North,0,0.0,-999.0,49,-99.99,,,-99.99,,2013-07-18 17:52:00,
2013-07-18 11:22:00,75.0,52.0,30.11,NNW,330,3.0,-999.0,44,-99.99,,,-99.99,,2013-07-18 18:22:00,
2013-07-18 11:32:00,75.0,52.0,30.11,NNW,330,3.0,-999.0,44,-99.99,,,-99.99,,2013-07-18 18:32:00,
2013-07-18 12:22:00,81.0,46.0,30.10,NW,310,13.0,-999.0,30,-99.99,,,-99.99,,2013-07-18 19:22:00,
2013-07-18 12:32:00,81.0,46.0,30.10,NW,310,13.0,-999.0,30,-99.99,,,-99.99,,2013-07-18 19:32:00,
2013-07-18 12:53:00,81.0,43.0,30.10,NW,310,14.0,-999.0,26,-99.99,,,-99.99,,2013-07-18 19:53:00,
2013-07-18 13:52:00,84.0,41.0,30.08,NW,320,9.0,-999.0,21,-99.99,,,-99.99,,2013-07-18 20:52:00,
2013-07-18 14:22:00,86.0,43.0,30.06,NW,320,9.0,-999.0,22,-99.99,,,-99.99,,2013-07-18 21:22:00,
2013-07-18 14:32:00,86.0,43.0,30.06,NW,320,9.0,-999.0,22,-99.99,,,-99.99,,2013-07-18 21:32:00,
2013-07-18 14:52:00,86.0,43.0,30.06,WNW,290,9.0,17.0,22,-99.99,,,-99.99,,2013-07-18 21:52:00,
2013-07-18 15:22:00,86.0,45.0,30.04,WNW,290,10.0,16.0,23,-99.99,,,-99.99,,2013-07-18 22:22:00,
2013-07-18 15:32:00,86.0,45.0,30.04,WNW,290,10.0,16.0,23,-99.99,,,-99.99,,2013-07-18 22:32:00,
2013-07-18 15:53:00,86.0,46.0,30.04,WNW,290,12.0,17.0,25,-99.99,,,-99.99,,2013-07-18 22:53:00,
2013-07-18 16:22:00,86.0,48.0,30.03,WNW,290,10.0,17.0,27,-99.99,,,-99.99,,2013-07-18 23:22:00,
2013-07-18 16:32:00,86.0,48.0,30.03,WNW,290,10.0,17.0,27,-99.99,,,-99.99,,2013-07-18 23:32:00,
2013-07-18 17:22:00,86.0,52.0,30.00,WNW,300,10.0,18.0,30,-99.99,,,-99.99,,2013-07-19 00:22:00,
2013-07-18 17:32:00,86.0,52.0,30.00,WNW,300,10.0,18.0,30,-99.99,,,-99.99,,2013-07-19 00:32:00,
2013-07-18 17:52:00,86.0,50.0,30.00,WNW,300,14.0,21.0,28,-99.99,,,-99.99,,2013-07-19 00:52:00,
2013-07-18 18:22:00,84.0,50.0,30.00,WNW,300,9.0,17.0,30,-99.99,,,-99.99,,2013-07-19 01:22:00,
2013-07-18 18:32:00,84.0,50.0,30.00,WNW,300,9.0,17.0,30,-99.99,,,-99.99,,2013-07-19 01:32:00,
2013-07-18 18:52:00,84.0,50.0,29.99,WNW,290,8.0,21.0,30,-99.99,,,-99.99,,2013-07-19 01:52:00,
2013-07-18 19:22:00,84.0,50.0,30.00,WSW,250,5.0,-999.0,30,-99.99,,,-99.99,,2013-07-19 02:22:00,
2013-07-18 19:32:00,84.0,50.0,30.00,WSW,250,5.0,-999.0,30,-99.99,,,-99.99,,2013-07-19 02:32:00,
2013-07-18 19:52:00,82.0,48.0,30.00,WSW,250,5.0,-999.0,30,-99.99,,,-99.99,,2013-07-19 02:52:00,
2013-07-18 20:22:00,79.0,52.0,30.01,NNW,340,8.0,-999.0,39,-99.99,,,-99.99,,2013-07-19 03:22:00,
2013-07-18 20:32:00,79.0,52.0,30.01,NNW,340,8.0,-999.0,39,-99.99,,,-99.99,,2013-07-19 03:32:00,
2013-07-18 20:52:00,79.0,52.0,30.01,NW,310,6.0,-999.0,39,-99.99,,,-99.99,,2013-07-19 03:52:00,
2013-07-18 21:22:00,77.0,52.0,30.01,NW,310,8.0,-999.0,41,-99.99,,,-99.99,,2013-07-19 04:22:00,
2013-07-18 21:33:00,77.0,52.0,30.01,NW,310,8.0,-999.0,41,-99.99,,,-99.99,,2013-07-19 04:33:00,
2013-07-18 21:52:00,73.0,54.0,30.02,NNW,330,9.0,-999.0,49,-99.99,,,-99.99,,2013-07-19 04:52:00,
2013-07-18 22:22:00,73.0,54.0,30.03,North,0,0.0,-999.0,49,-99.99,,,-99.99,,2013-07-19 05:22:00,
2013-07-18 22:32:00,73.0,54.0,30.03,North,0,0.0,-999.0,49,-99.99,,,-99.99,,2013-07-19 05:32:00,
2013-07-18 22:53:00,70.0,54.0,30.04,North,0,0.0,-999.0,56,-99.99,,,-99.99,,2013-07-19 05:53:00,
2013-07-18 23:22:00,72.0,55.0,30.04,WNW,290,9.0,16.0,56,-99.99,,,-99.99,,2013-07-19 06:22:00,
2013-07-18 23:32:00,72.0,55.0,30.04,WNW,290,9.0,16.0,56,-99.99,,,-99.99,,2013-07-19 06:32:00,
2013-07-18 23:52:00,72.0,55.0,30.04,WNW,290,7.0,-999.0,56,-99.99,,,-99.99,,2013-07-19 06:52:00,